createdAt,value
2018-07-13T00:01:01.862Z,82.63
2018-07-13T00:03:30.528Z,82.95
2018-07-13T00:05:59.157Z,83.71
2018-07-13T00:08:27.804Z,83.46
2018-07-13T00:10:56.372Z,83.14
2018-07-13T00:13:24.897Z,83.90
2018-07-13T00:16:04.422Z,84.67
2018-07-13T00:18:33.186Z,84.53
2018-07-13T00:21:01.921Z,83.77
2018-07-13T00:23:30.597Z,84.54
2018-07-13T00:25:59.227Z,83.65
2018-07-13T00:28:27.875Z,84.01
2018-07-13T00:30:56.401Z,83.67
2018-07-13T00:33:24.956Z,85.86
2018-07-13T00:35:53.532Z,86.76
2018-07-13T00:38:22.112Z,86.70
2018-07-13T00:40:50.740Z,88.34
2018-07-13T00:43:19.300Z,89.12
2018-07-13T00:45:47.900Z,88.82
2018-07-13T00:48:16.524Z,89.04
2018-07-13T00:50:45.041Z,86.46
2018-07-13T00:53:14.042Z,85.98
2018-07-13T00:55:42.552Z,85.29
2018-07-13T00:58:11.120Z,85.38
2018-07-13T01:00:39.752Z,85.03
2018-07-13T01:03:08.292Z,85.94
2018-07-13T01:05:36.961Z,87.28
2018-07-13T01:08:05.637Z,88.88
2018-07-13T01:10:34.219Z,89.84
2018-07-13T01:13:02.884Z,87.91
2018-07-13T01:15:31.484Z,87.75
2018-07-13T01:18:00.310Z,86.31
2018-07-13T01:20:28.864Z,86.66
2018-07-13T01:22:57.492Z,86.86
2018-07-13T01:25:26.090Z,88.72
2018-07-13T01:27:54.657Z,88.52
2018-07-13T01:30:23.488Z,89.18
2018-07-13T01:32:52.038Z,89.60
2018-07-13T01:35:20.633Z,88.42
2018-07-13T01:37:49.212Z,88.39
2018-07-13T01:40:17.828Z,87.32
2018-07-13T01:42:46.479Z,89.54
2018-07-13T01:45:15.262Z,88.02
2018-07-13T01:47:43.841Z,87.90
2018-07-13T01:50:12.477Z,87.42
2018-07-13T01:52:41.008Z,88.13
2018-07-13T01:55:09.840Z,86.99
2018-07-13T01:57:38.367Z,87.50
2018-07-13T02:00:07.893Z,87.74
2018-07-13T02:02:36.445Z,88.29
2018-07-13T02:05:05.610Z,87.39
2018-07-13T02:07:34.788Z,89.60
2018-07-13T02:10:03.412Z,88.69
2018-07-13T02:12:31.992Z,87.39
2018-07-13T02:15:00.556Z,88.66
2018-07-13T02:17:29.101Z,87.72
2018-07-13T02:19:57.893Z,87.42
2018-07-13T02:22:26.648Z,87.08
2018-07-13T02:24:55.276Z,86.57
2018-07-13T02:27:23.861Z,87.18
2018-07-13T02:29:52.408Z,86.94
2018-07-13T02:32:21.469Z,87.14
2018-07-13T02:34:50.021Z,87.34
2018-07-13T02:37:18.622Z,86.70
2018-07-13T02:39:47.185Z,87.91
2018-07-13T02:42:15.848Z,87.39
2018-07-13T02:44:44.428Z,87.92
2018-07-13T02:47:13.013Z,87.40
2018-07-13T02:49:41.567Z,87.74
2018-07-13T02:52:10.153Z,86.22
2018-07-13T02:54:38.697Z,86.43
2018-07-13T02:57:07.316Z,86.22
2018-07-13T02:59:35.885Z,86.50
2018-07-13T03:02:04.509Z,87.29
2018-07-13T03:04:33.141Z,87.56
2018-07-13T03:07:01.781Z,87.49
2018-07-13T03:09:30.437Z,87.73
2018-07-13T03:11:59.021Z,87.59
2018-07-13T03:14:27.664Z,86.96
2018-07-13T03:16:56.608Z,87.17
2018-07-13T03:19:25.179Z,87.92
2018-07-13T03:21:53.772Z,87.26
2018-07-13T03:24:22.368Z,87.86
2018-07-13T03:26:50.977Z,87.69
2018-07-13T03:29:19.640Z,88.04
2018-07-13T03:31:48.265Z,87.09
2018-07-13T03:34:17.096Z,87.01
2018-07-13T03:36:45.656Z,86.92
2018-07-13T03:39:14.241Z,86.78
2018-07-13T03:41:42.812Z,86.77
2018-07-13T03:44:11.393Z,86.47
2018-07-13T03:46:40.094Z,86.75
2018-07-13T03:49:08.748Z,85.80
2018-07-13T03:51:37.365Z,85.97
2018-07-13T03:54:06.461Z,86.95
2018-07-13T03:56:35.142Z,85.81
2018-07-13T03:59:04.001Z,87.25
2018-07-13T04:01:32.687Z,86.15
2018-07-13T04:04:01.429Z,86.44
2018-07-13T04:06:30.119Z,86.41
2018-07-13T04:08:58.729Z,87.24
2018-07-13T04:11:27.612Z,86.50
2018-07-13T04:13:56.172Z,86.76
2018-07-13T04:16:24.789Z,86.55
2018-07-13T04:18:53.365Z,86.62
2018-07-13T04:21:21.944Z,88.37
2018-07-13T04:23:50.680Z,88.74
2018-07-13T04:26:19.285Z,88.89
2018-07-13T04:28:48.367Z,88.22
2018-07-13T04:31:17.060Z,87.37
2018-07-13T04:33:45.656Z,87.05
2018-07-13T04:36:14.248Z,86.99
2018-07-13T04:38:42.861Z,87.51
2018-07-13T04:41:11.628Z,86.72
2018-07-13T04:43:40.140Z,87.87
2018-07-13T04:46:08.830Z,86.69
2018-07-13T04:48:37.611Z,86.17
2018-07-13T04:51:06.560Z,85.98
2018-07-13T04:53:35.252Z,86.58
2018-07-13T04:56:03.925Z,86.63
2018-07-13T04:58:32.684Z,86.23
2018-07-13T05:01:01.557Z,86.51
2018-07-13T05:03:30.172Z,86.66
2018-07-13T05:05:58.842Z,86.09
2018-07-13T05:08:27.553Z,85.89
2018-07-13T05:10:56.133Z,85.82
2018-07-13T05:13:24.792Z,84.38
2018-07-13T05:15:53.696Z,81.33
2018-07-13T05:18:22.316Z,79.58
2018-07-13T05:20:51.176Z,78.85
2018-07-13T05:23:19.989Z,76.94
2018-07-13T05:25:48.688Z,76.50
2018-07-13T05:28:17.392Z,75.77
2018-07-13T05:30:46.194Z,75.48
2018-07-13T05:33:14.809Z,75.21
2018-07-13T05:35:43.557Z,74.28
2018-07-13T05:38:12.466Z,74.01
2018-07-13T05:40:41.364Z,73.87
2018-07-13T05:43:10.092Z,73.14
2018-07-13T05:45:38.797Z,72.66
2018-07-13T05:48:07.466Z,71.60
2018-07-13T05:50:36.328Z,70.61
2018-07-13T05:53:05.165Z,71.28
2018-07-13T05:55:33.909Z,70.53
2018-07-13T05:58:02.606Z,68.71
2018-07-13T06:00:31.285Z,68.53
2018-07-13T06:02:59.998Z,70.28
2018-07-13T06:05:28.748Z,69.82
2018-07-13T06:07:57.465Z,68.00
2018-07-13T06:10:26.152Z,67.34
2018-07-13T06:12:54.849Z,68.41
2018-07-13T06:15:23.754Z,69.06
2018-07-13T06:17:52.414Z,68.29
2018-07-13T06:20:21.068Z,67.37
2018-07-13T06:22:49.728Z,67.06
2018-07-13T06:25:18.264Z,67.34
2018-07-13T06:27:47.040Z,66.52
2018-07-13T06:30:15.779Z,64.76
2018-07-13T06:32:44.528Z,66.05
2018-07-13T06:35:13.112Z,65.87
2018-07-13T06:37:41.828Z,66.87
2018-07-13T06:40:10.732Z,66.42
2018-07-13T06:42:39.449Z,66.74
2018-07-13T06:45:08.101Z,65.27
2018-07-13T06:47:36.790Z,65.26
2018-07-13T06:50:05.426Z,64.33
2018-07-13T06:52:34.253Z,64.24
2018-07-13T06:55:02.969Z,63.72
2018-07-13T06:57:42.890Z,63.34
2018-07-13T07:00:58.157Z,64.07
2018-07-13T07:03:27.609Z,63.30
2018-07-13T07:06:05.009Z,62.76
2018-07-13T07:08:33.632Z,62.34
2018-07-13T07:11:02.320Z,62.75
2018-07-13T07:13:40.008Z,62.79
2018-07-13T07:16:08.729Z,62.34
2018-07-13T07:18:37.333Z,62.50
2018-07-13T07:21:06.204Z,62.52
2018-07-13T07:23:35.279Z,60.89
2018-07-13T07:26:04.644Z,62.26
2018-07-13T07:28:33.340Z,61.37
2018-07-13T07:31:02.824Z,61.70
2018-07-13T07:33:31.448Z,62.41
2018-07-13T07:36:00.096Z,60.60
2018-07-13T07:38:29.385Z,60.51
2018-07-13T07:40:58.021Z,61.18
2018-07-13T07:43:26.660Z,62.55
2018-07-13T07:45:55.345Z,60.46
2018-07-13T07:48:23.909Z,61.63
2018-07-13T07:50:52.541Z,62.15
2018-07-13T07:53:21.122Z,61.74
2018-07-13T07:55:49.657Z,61.64
2018-07-13T07:58:18.328Z,60.07
2018-07-13T08:00:46.936Z,59.39
2018-07-13T08:03:15.838Z,56.75
2018-07-13T08:05:44.377Z,56.01
2018-07-13T08:08:12.917Z,56.80
2018-07-13T08:10:41.551Z,55.41
2018-07-13T08:13:10.176Z,54.33
2018-07-13T08:15:38.836Z,54.36
2018-07-13T08:18:07.552Z,55.27
2018-07-13T08:20:38.040Z,53.55
2018-07-13T08:23:07.412Z,55.40
2018-07-13T08:25:36.510Z,53.04
2018-07-13T08:28:05.707Z,52.38
2018-07-13T08:30:41.516Z,53.89
2018-07-13T08:33:10.265Z,53.62
2018-07-13T08:35:38.817Z,51.68
2018-07-13T08:38:07.880Z,53.13
2018-07-13T08:40:36.480Z,52.24
2018-07-13T08:43:05.168Z,52.80
2018-07-13T08:45:33.880Z,51.67
2018-07-13T08:48:02.493Z,53.05
2018-07-13T08:50:31.500Z,53.13
2018-07-13T08:53:00.461Z,52.29
2018-07-13T08:55:29.539Z,52.85
2018-07-13T08:57:58.465Z,52.25
2018-07-13T09:00:27.369Z,51.35
2018-07-13T09:02:55.944Z,50.54
2018-07-13T09:05:24.792Z,50.68
2018-07-13T09:07:53.420Z,50.88
2018-07-13T09:10:22.125Z,50.36
2018-07-13T09:12:50.874Z,49.43
2018-07-13T09:15:19.423Z,50.65
2018-07-13T09:17:48.044Z,47.81
2018-07-13T09:20:16.638Z,49.18
2018-07-13T09:22:45.299Z,47.90
2018-07-13T09:25:14.037Z,49.56
2018-07-13T09:27:42.672Z,48.77
2018-07-13T09:30:12.161Z,47.10
2018-07-13T09:32:41.148Z,47.25
2018-07-13T09:35:10.183Z,47.92
2018-07-13T09:37:38.921Z,47.80
2018-07-13T09:40:07.692Z,44.03
2018-07-13T09:42:36.800Z,43.68
2018-07-13T09:45:05.516Z,42.48
2018-07-13T09:47:34.897Z,43.70
2018-07-13T09:50:03.521Z,43.12
2018-07-13T09:52:32.207Z,43.02
2018-07-13T09:55:00.871Z,42.68
2018-07-13T09:57:29.464Z,44.52
2018-07-13T09:59:58.205Z,43.60
2018-07-13T10:02:26.860Z,42.93
2018-07-13T10:04:55.560Z,43.92
2018-07-13T10:07:24.188Z,42.83
2018-07-13T10:09:52.821Z,41.13
2018-07-13T10:12:21.502Z,41.78
2018-07-13T10:14:50.199Z,41.00
2018-07-13T10:17:18.752Z,40.58
2018-07-13T10:19:47.394Z,40.31
2018-07-13T10:22:18.320Z,41.22
2018-07-13T10:24:48.399Z,41.41
2018-07-13T10:27:17.032Z,40.45
2018-07-13T10:29:50.715Z,40.36
2018-07-13T10:32:19.382Z,40.52
2018-07-13T10:34:48.459Z,41.20
2018-07-13T10:37:17.240Z,41.74
2018-07-13T10:39:45.829Z,41.25
2018-07-13T10:42:14.772Z,40.05
2018-07-13T10:44:43.436Z,41.29
2018-07-13T10:47:12.099Z,40.67
2018-07-13T10:49:40.728Z,40.60
2018-07-13T10:52:09.308Z,40.92
2018-07-13T10:54:37.864Z,40.03
2018-07-13T10:57:06.561Z,39.62
2018-07-13T10:59:35.096Z,40.17
2018-07-13T11:02:03.756Z,40.15
2018-07-13T11:04:32.310Z,38.73
2018-07-13T11:07:01.156Z,38.25
2018-07-13T11:09:29.681Z,38.40
2018-07-13T11:11:58.320Z,37.87
2018-07-13T11:14:27.016Z,37.31
2018-07-13T11:16:55.588Z,37.77
2018-07-13T11:19:24.201Z,37.87
2018-07-13T11:21:52.808Z,38.13
2018-07-13T11:24:21.445Z,37.35
2018-07-13T11:26:49.964Z,36.15
2018-07-13T11:29:18.561Z,37.99
2018-07-13T11:31:47.127Z,37.12
2018-07-13T11:34:15.685Z,37.65
2018-07-13T11:36:44.245Z,36.80
2018-07-13T11:39:12.820Z,36.50
2018-07-13T11:41:41.346Z,36.42
2018-07-13T11:44:09.974Z,37.56
2018-07-13T11:46:38.544Z,36.56
2018-07-13T11:49:07.870Z,37.07
2018-07-13T11:51:36.433Z,35.30
2018-07-13T11:54:05.019Z,35.83
2018-07-13T11:56:33.561Z,34.07
2018-07-13T11:59:02.080Z,35.41
2018-07-13T12:01:30.628Z,35.41
2018-07-13T12:03:59.206Z,36.32
2018-07-13T12:06:27.804Z,36.90
2018-07-13T12:08:56.482Z,38.26
2018-07-13T12:11:25.025Z,37.79
2018-07-13T12:13:53.545Z,36.62
2018-07-13T12:16:22.128Z,37.29
2018-07-13T12:18:50.653Z,36.92
2018-07-13T12:21:19.236Z,37.19
2018-07-13T12:23:47.754Z,36.13
2018-07-13T12:26:16.376Z,35.44
2018-07-13T12:28:44.916Z,36.41
2018-07-13T12:31:13.494Z,36.05
2018-07-13T12:33:42.101Z,36.16
2018-07-13T12:36:10.648Z,36.49
2018-07-13T12:38:39.260Z,36.05
2018-07-13T12:41:07.884Z,35.50
2018-07-13T12:43:36.605Z,35.58
2018-07-13T12:46:05.555Z,36.05
2018-07-13T12:48:34.124Z,35.35
2018-07-13T12:51:02.761Z,35.88
2018-07-13T12:53:31.356Z,36.33
2018-07-13T12:56:00.030Z,36.34
2018-07-13T12:58:28.697Z,35.67
2018-07-13T13:00:57.249Z,35.94
2018-07-13T13:03:25.833Z,34.79
2018-07-13T13:05:54.480Z,35.95
2018-07-13T13:08:23.016Z,34.39
2018-07-13T13:10:51.681Z,34.73
2018-07-13T13:13:20.232Z,33.49
2018-07-13T13:15:48.825Z,34.83
2018-07-13T13:18:17.389Z,33.65
2018-07-13T13:20:46.038Z,34.90
2018-07-13T13:23:14.568Z,34.03
2018-07-13T13:25:43.252Z,34.27
2018-07-13T13:28:11.800Z,34.17
2018-07-13T13:30:40.348Z,34.28
2018-07-13T13:33:09.237Z,34.31
2018-07-13T13:35:38.143Z,35.14
2018-07-13T13:38:06.740Z,33.20
2018-07-13T13:40:35.320Z,33.67
2018-07-13T13:43:03.896Z,33.94
2018-07-13T13:45:32.533Z,32.81
2018-07-13T13:48:01.558Z,32.73
2018-07-13T13:50:30.092Z,32.83
2018-07-13T13:52:58.612Z,31.95
2018-07-13T13:55:27.268Z,33.26
2018-07-13T13:57:55.889Z,32.41
2018-07-13T14:00:24.519Z,33.49
2018-07-13T14:02:53.076Z,32.82
2018-07-13T14:05:21.712Z,32.28
2018-07-13T14:07:50.304Z,33.03
2018-07-13T14:10:18.885Z,33.87
2018-07-13T14:12:47.661Z,34.27
2018-07-13T14:15:16.269Z,34.38
2018-07-13T14:17:44.884Z,33.76
2018-07-13T14:20:13.417Z,35.04
2018-07-13T14:22:42.072Z,35.26
2018-07-13T14:25:10.664Z,32.92
2018-07-13T14:27:39.581Z,32.51
2018-07-13T14:30:08.190Z,34.08
2018-07-13T14:32:36.748Z,33.83
2018-07-13T14:35:05.853Z,34.59
2018-07-13T14:37:34.424Z,34.35
2018-07-13T14:40:03.034Z,33.48
2018-07-13T14:42:31.544Z,34.22
2018-07-13T14:45:00.165Z,32.36
2018-07-13T14:47:28.840Z,33.11
2018-07-13T14:49:57.690Z,32.76
2018-07-13T14:52:26.343Z,31.94
2018-07-13T14:54:55.001Z,32.62
2018-07-13T14:57:23.669Z,32.39
2018-07-13T14:59:52.292Z,33.24
2018-07-13T15:02:21.091Z,35.06
2018-07-13T15:04:49.704Z,35.35
2018-07-13T15:07:18.337Z,35.41
2018-07-13T15:09:46.945Z,35.35
2018-07-13T15:12:15.544Z,37.28
2018-07-13T15:14:44.276Z,38.74
2018-07-13T15:17:12.829Z,38.08
2018-07-13T15:19:41.487Z,37.98
2018-07-13T15:22:10.060Z,38.37
2018-07-13T15:24:38.685Z,39.54
2018-07-13T15:27:07.337Z,40.15
2018-07-13T15:29:35.880Z,39.34
2018-07-13T15:32:04.437Z,40.63
2018-07-13T15:34:33.121Z,39.32
2018-07-13T15:37:01.903Z,39.71
2018-07-13T15:39:30.456Z,38.97
2018-07-13T15:41:59.029Z,39.33
2018-07-13T15:44:27.644Z,39.38
2018-07-13T15:46:56.336Z,38.31
2018-07-13T15:49:24.896Z,38.27
2018-07-13T15:51:53.550Z,39.54
2018-07-13T15:54:22.068Z,38.94
2018-07-13T15:56:50.824Z,40.08
2018-07-13T15:59:19.459Z,40.42
2018-07-13T16:01:48.083Z,39.89
2018-07-13T16:04:16.913Z,39.71
2018-07-13T16:06:45.540Z,39.18
2018-07-13T16:09:14.049Z,39.88
2018-07-13T16:11:42.616Z,39.73
2018-07-13T16:14:11.252Z,40.00
2018-07-13T16:16:39.752Z,39.32
2018-07-13T16:19:08.400Z,40.28
2018-07-13T16:21:36.940Z,39.90
2018-07-13T16:24:05.513Z,38.88
2018-07-13T16:26:34.136Z,39.77
2018-07-13T16:29:02.888Z,39.87
2018-07-13T16:31:31.656Z,41.18
2018-07-13T16:34:00.642Z,41.35
2018-07-13T16:36:29.136Z,41.50
2018-07-13T16:38:57.700Z,41.29
2018-07-13T16:41:26.348Z,41.14
2018-07-13T16:43:54.919Z,40.47
2018-07-13T16:46:23.596Z,41.03
2018-07-13T16:48:52.181Z,41.88
2018-07-13T16:51:20.729Z,41.57
2018-07-13T16:53:49.292Z,39.24
2018-07-13T16:56:17.998Z,39.89
2018-07-13T16:58:46.500Z,40.19
2018-07-13T17:01:15.101Z,39.47
2018-07-13T17:03:43.771Z,40.42
2018-07-13T17:06:12.484Z,40.02
2018-07-13T17:08:41.476Z,38.83
2018-07-13T17:11:10.120Z,38.82
2018-07-13T17:13:38.700Z,39.59
2018-07-13T17:16:07.236Z,39.02
2018-07-13T17:18:35.764Z,40.21
2018-07-13T17:21:04.413Z,40.25
2018-07-13T17:23:33.136Z,40.11
2018-07-13T17:26:02.104Z,39.59
2018-07-13T17:28:30.680Z,39.80
2018-07-13T17:30:59.324Z,40.18
2018-07-13T17:33:27.884Z,41.27
2018-07-13T17:35:56.528Z,40.39
2018-07-13T17:38:25.452Z,41.54
2018-07-13T17:40:54.292Z,40.91
2018-07-13T17:43:22.856Z,40.93
2018-07-13T17:45:51.472Z,41.09
2018-07-13T17:48:20.100Z,39.63
2018-07-13T17:50:48.711Z,40.02
2018-07-13T17:53:17.332Z,39.72
2018-07-13T17:55:45.927Z,41.10
2018-07-13T17:58:14.702Z,40.43
2018-07-13T18:00:43.334Z,40.84
2018-07-13T18:03:11.973Z,40.67
2018-07-13T18:05:40.508Z,41.86
2018-07-13T18:08:09.047Z,41.63
2018-07-13T18:10:37.649Z,41.04
2018-07-13T18:13:07.217Z,41.65
2018-07-13T18:15:35.876Z,42.12
2018-07-13T18:18:04.445Z,43.56
2018-07-13T18:20:33.100Z,43.45
2018-07-13T18:23:01.750Z,42.88
2018-07-13T18:25:30.324Z,42.81
2018-07-13T18:27:58.957Z,43.00
2018-07-13T18:30:27.496Z,43.59
2018-07-13T18:32:56.076Z,44.12
2018-07-13T18:35:24.653Z,44.20
2018-07-13T18:37:53.261Z,43.80
2018-07-13T18:40:21.804Z,43.64
2018-07-13T18:42:50.440Z,44.77
2018-07-13T18:45:19.085Z,44.88
2018-07-13T18:47:47.609Z,43.27
2018-07-13T18:50:16.165Z,44.45
2018-07-13T18:52:44.701Z,44.78
2018-07-13T18:55:13.257Z,44.88
2018-07-13T18:57:41.788Z,45.60
2018-07-13T19:00:10.544Z,46.05
2018-07-13T19:02:39.128Z,46.34
2018-07-13T19:05:07.684Z,46.90
2018-07-13T19:07:36.241Z,48.36
2018-07-13T19:10:04.925Z,48.95
2018-07-13T19:12:33.548Z,50.15
2018-07-13T19:15:02.158Z,50.75
2018-07-13T19:17:30.771Z,52.86
2018-07-13T19:19:59.380Z,53.19
2018-07-13T19:22:28.062Z,54.51
2018-07-13T19:24:56.572Z,53.97
2018-07-13T19:27:25.188Z,54.64
2018-07-13T19:29:53.844Z,53.87
2018-07-13T19:32:22.635Z,54.24
2018-07-13T19:34:51.265Z,54.13
2018-07-13T19:37:19.855Z,56.43
2018-07-13T19:39:48.475Z,55.83
2018-07-13T19:42:17.173Z,57.16
2018-07-13T19:44:45.756Z,56.99
2018-07-13T19:47:14.376Z,56.45
2018-07-13T19:49:43.031Z,56.69
2018-07-13T19:52:11.880Z,55.53
2018-07-13T19:54:40.485Z,55.66
2018-07-13T19:57:09.198Z,56.00
2018-07-13T19:59:37.764Z,55.82
2018-07-13T20:02:06.609Z,55.63
2018-07-13T20:04:35.688Z,56.24
2018-07-13T20:07:04.305Z,55.67
2018-07-13T20:09:32.849Z,55.97
2018-07-13T20:12:01.419Z,57.07
2018-07-13T20:14:30.040Z,56.92
2018-07-13T20:16:58.717Z,55.91
2018-07-13T20:19:27.319Z,55.26
2018-07-13T20:21:55.913Z,56.12
2018-07-13T20:24:24.864Z,60.00
2018-07-13T20:26:53.524Z,59.66
2018-07-13T20:29:22.256Z,60.18
2018-07-13T20:31:50.833Z,60.38
2018-07-13T20:34:19.535Z,60.32
2018-07-13T20:36:48.156Z,61.76
2018-07-13T20:39:16.857Z,61.65
2018-07-13T20:41:45.533Z,60.93
2018-07-13T20:44:14.198Z,61.58
2018-07-13T20:46:42.938Z,61.62
2018-07-13T20:49:11.625Z,60.90
2018-07-13T20:51:40.208Z,60.84
2018-07-13T20:54:08.941Z,60.66
2018-07-13T20:56:37.561Z,61.47
2018-07-13T20:59:06.213Z,61.20
2018-07-13T21:01:34.784Z,61.02
2018-07-13T21:04:03.417Z,61.10
2018-07-13T21:06:31.976Z,61.89
2018-07-13T21:09:00.576Z,60.24
2018-07-13T21:11:29.096Z,61.61
2018-07-13T21:13:57.710Z,61.81
2018-07-13T21:16:26.380Z,62.03
2018-07-13T21:18:55.108Z,61.03
2018-07-13T21:21:23.689Z,62.65
2018-07-13T21:23:52.684Z,63.46
2018-07-13T21:26:21.276Z,63.29
2018-07-13T21:28:49.858Z,63.21
2018-07-13T21:31:18.709Z,62.43
2018-07-13T21:33:47.249Z,62.53
2018-07-13T21:36:15.995Z,63.87
2018-07-13T21:38:44.564Z,63.19
2018-07-13T21:41:13.104Z,63.94
2018-07-13T21:43:41.908Z,64.45
2018-07-13T21:46:10.552Z,64.05
2018-07-13T21:48:39.076Z,64.21
2018-07-13T21:51:07.678Z,64.62
2018-07-13T21:53:36.224Z,65.70
2018-07-13T21:56:04.875Z,65.94
2018-07-13T21:58:33.553Z,66.65
2018-07-13T22:01:02.112Z,67.85
2018-07-13T22:03:30.670Z,67.78
2018-07-13T22:05:59.196Z,67.18
2018-07-13T22:08:28.020Z,66.75
2018-07-13T22:10:56.601Z,68.08
2018-07-13T22:13:25.189Z,67.47
2018-07-13T22:15:53.756Z,68.71
2018-07-13T22:18:22.496Z,69.64
2018-07-13T22:20:51.164Z,69.43
2018-07-13T22:23:19.926Z,70.61
2018-07-13T22:25:48.508Z,70.14
2018-07-13T22:28:17.141Z,68.56
2018-07-13T22:30:45.700Z,67.99
2018-07-13T22:33:14.428Z,68.47
2018-07-13T22:35:42.972Z,69.50
2018-07-13T22:38:11.577Z,71.03
2018-07-13T22:40:40.224Z,71.01
2018-07-13T22:43:09.325Z,71.47
2018-07-13T22:45:37.948Z,69.38
2018-07-13T22:48:06.666Z,69.71
2018-07-13T22:50:35.288Z,69.04
2018-07-13T22:53:03.966Z,69.67
2018-07-13T22:55:32.500Z,69.49
2018-07-13T22:58:01.461Z,70.07
2018-07-13T23:00:30.116Z,70.60
2018-07-13T23:02:58.669Z,70.57
2018-07-13T23:05:27.308Z,70.19
2018-07-13T23:07:55.878Z,70.71
2018-07-13T23:10:24.848Z,70.50
2018-07-13T23:12:53.504Z,69.76
2018-07-13T23:15:22.172Z,70.72
2018-07-13T23:17:51.729Z,71.25
2018-07-13T23:20:20.370Z,71.70
2018-07-13T23:22:49.120Z,72.94
2018-07-13T23:25:17.696Z,72.53
2018-07-13T23:27:46.268Z,71.68
2018-07-13T23:30:14.848Z,72.19
2018-07-13T23:32:43.524Z,71.30
2018-07-13T23:35:12.148Z,74.87
2018-07-13T23:37:41.134Z,72.87
2018-07-13T23:40:09.776Z,73.93
2018-07-13T23:42:38.408Z,73.42
2018-07-13T23:45:06.972Z,72.04
2018-07-13T23:47:35.572Z,73.60
2018-07-13T23:50:04.214Z,73.51
2018-07-13T23:52:32.913Z,73.25
2018-07-13T23:55:01.560Z,75.01
2018-07-13T23:57:30.119Z,74.64
2018-07-13T23:59:58.672Z,75.60
